Terminal Aerodrome Forecast
Issued by NWS

Current Version | Previous Version | Text Only | Print | Product List | Glossary On
Versions: 1 2 3 4 5 6 7 8 9 10 11 12 13 14 15 16 17 18 19 20 21 22 23 24 25 26 27 28 29 30 31 32 33 34 35 36 37 38 39 40 41 42 43 44 45 46 47 48 49 50
000
FTUS41 KCTP 110307 AAB
TAFLNS
TAF AMD
KLNS 110307Z 1103/1124 VRB04KT 6SM BR VCSH BKN050
     FM110500 VRB03KT 5SM BR SCT060
     FM110900 00000KT 1SM BR BKN007
     FM111400 06005KT P6SM SKC=

USA.gov is the U.S. government's official web portal to all federal, state and local government web resources and services.